Time;durP1;ratioP1;P1;durP2;ratioP2;P2;SDS_P1;SDS_P2;PMS_P1;PMS_P2;Temp;Humidity;BMP_temperature;BMP_pressure;BME280_temperature;BME280_humidity;BME280_pressure;Samples;Min_cycle;Max_cycle;Signal;HPM_P1;HPM_P2
2022/11/20 00:01:59;;;;;;;14.18;7.90;;;1.70;99.90;;;;;;4228636;28;20043;-85
2022/11/20 00:04:01;;;;;;;15.57;7.70;;;1.20;99.90;;;;;;4222168;28;20079;-85
2022/11/20 00:06:05;;;;;;;14.45;6.80;;;2.50;99.90;;;;;;4234689;28;20077;-85
2022/11/20 00:08:08;;;;;;;16.52;6.78;;;1.10;99.90;;;;;;4235489;28;20048;-86
2022/11/20 00:10:08;;;;;;;13.18;6.57;;;1.30;99.90;;;;;;4235464;28;20067;-85
2022/11/20 00:12:10;;;;;;;11.30;5.35;;;1.10;99.90;;;;;;4235850;28;20042;-85
2022/11/20 00:14:13;;;;;;;11.82;6.55;;;2.00;99.90;;;;;;4220342;28;20063;-85
2022/11/20 00:16:16;;;;;;;12.40;6.53;;;1.10;99.90;;;;;;4218008;28;20032;-85
2022/11/20 00:18:17;;;;;;;15.23;7.22;;;2.00;99.90;;;;;;4218443;28;20095;-85
2022/11/20 00:20:19;;;;;;;14.05;6.78;;;1.00;99.90;;;;;;4217362;28;20044;-85
2022/11/20 00:22:21;;;;;;;16.67;6.65;;;1.00;99.90;;;;;;4218046;28;20497;-85
2022/11/20 00:24:22;;;;;;;12.57;6.65;;;1.00;99.90;;;;;;4213081;28;20044;-85
2022/11/20 00:26:24;;;;;;;13.38;6.20;;;1.00;99.90;;;;;;4218142;28;20048;-85
2022/11/20 00:28:26;;;;;;;13.80;6.93;;;1.10;99.90;;;;;;4218259;28;20124;-85
2022/11/20 00:30:28;;;;;;;13.13;6.70;;;2.00;99.90;;;;;;4209744;28;20075;-85
2022/11/20 00:32:30;;;;;;;18.45;6.35;;;1.00;99.90;;;;;;4217405;28;20086;-85
2022/11/20 00:34:31;;;;;;;16.45;7.07;;;2.40;99.90;;;;;;4219623;28;20048;-85
2022/11/20 00:36:34;;;;;;;16.15;7.05;;;1.00;99.90;;;;;;4218096;28;20040;-86
2022/11/20 00:38:36;;;;;;;14.02;6.85;;;1.00;99.90;;;;;;4218924;28;20067;-84
2022/11/20 00:40:37;;;;;;;14.57;7.00;;;0.80;99.90;;;;;;4217783;28;20044;-84
2022/11/20 00:42:39;;;;;;;14.18;6.50;;;1.10;99.90;;;;;;4218299;28;20040;-84
2022/11/20 00:44:41;;;;;;;14.13;6.63;;;2.00;99.90;;;;;;4218109;28;20444;-83
2022/11/20 00:46:43;;;;;;;15.48;6.38;;;0.90;99.90;;;;;;4210112;28;20044;-84
2022/11/20 00:48:45;;;;;;;14.63;6.65;;;1.00;99.90;;;;;;4218922;28;20048;-84
2022/11/20 00:50:53;;;;;;;12.95;5.82;;;2.60;99.90;;;;;;4218654;28;20059;-83
2022/11/20 00:52:55;;;;;;;15.10;7.35;;;2.40;99.90;;;;;;4216438;28;20052;-84
2022/11/20 00:54:57;;;;;;;13.40;7.18;;;1.10;99.90;;;;;;4219199;28;20044;-85
2022/11/20 00:56:58;;;;;;;14.00;7.10;;;1.00;99.90;;;;;;4219209;28;20130;-85
2022/11/20 00:59:01;;;;;;;16.08;6.18;;;1.00;99.90;;;;;;4219723;28;20047;-85
2022/11/20 01:01:04;;;;;;;16.17;6.80;;;1.70;99.90;;;;;;4218794;28;20055;-85
2022/11/20 01:03:05;;;;;;;13.25;6.43;;;1.00;99.90;;;;;;4219059;28;20047;-85
2022/11/20 01:05:08;;;;;;;12.00;6.35;;;2.30;99.90;;;;;;4217683;28;20075;-85
2022/11/20 01:07:11;;;;;;;11.90;5.57;;;1.10;99.90;;;;;;4216474;28;20504;-84
2022/11/20 01:09:13;;;;;;;12.20;6.28;;;0.90;99.90;;;;;;4200100;28;20048;-84
2022/11/20 01:11:21;;;;;;;15.00;6.18;;;2.20;99.90;;;;;;4216446;28;20055;-85
2022/11/20 01:13:37;;;;;;;13.43;6.63;;;2.00;99.90;;;;;;4230433;27;20503;-85
2022/11/20 01:15:38;;;;;;;11.70;5.97;;;2.50;99.90;;;;;;4251241;27;20122;-84
2022/11/20 01:17:40;;;;;;;11.80;6.32;;;1.10;99.90;;;;;;4241035;27;20077;-83
2022/11/20 01:19:41;;;;;;;11.70;5.93;;;2.50;99.90;;;;;;4228539;28;20055;-84
2022/11/20 01:21:43;;;;;;;15.48;6.35;;;1.10;99.90;;;;;;4234040;28;20047;-84
2022/11/20 01:23:47;;;;;;;11.38;5.80;;;2.20;99.90;;;;;;4215534;28;20139;-84
2022/11/20 01:25:48;;;;;;;13.20;6.22;;;1.80;99.90;;;;;;4215942;28;20080;-84
2022/11/20 01:27:52;;;;;;;12.32;6.22;;;2.20;99.90;;;;;;4235988;28;20395;-84
2022/11/20 01:29:54;;;;;;;13.20;6.25;;;1.10;99.90;;;;;;4252019;27;20054;-84
2022/11/20 01:31:56;;;;;;;11.98;5.82;;;1.00;99.90;;;;;;4234910;28;20052;-84
2022/11/20 01:34:01;;;;;;;11.18;5.38;;;1.40;99.90;;;;;;4235128;28;20051;-84
2022/11/20 01:36:05;;;;;;;11.55;5.80;;;1.10;99.90;;;;;;4241337;28;20036;-85
2022/11/20 01:38:08;;;;;;;12.05;5.13;;;1.00;99.90;;;;;;4218774;28;20044;-84
2022/11/20 01:40:09;;;;;;;11.02;4.85;;;1.10;99.90;;;;;;4241009;28;20035;-84
2022/11/20 01:44:54;;;;;;;9.40;5.50;;;1.00;99.90;;;;;;4253351;28;20086;-84
2022/11/20 01:47:04;;;;;;;9.10;4.97;;;1.10;99.90;;;;;;4234943;28;20075;-84
2022/11/20 01:49:16;;;;;;;12.88;5.53;;;1.10;99.90;;;;;;4205326;28;20086;-84
2022/11/20 01:52:06;;;;;;;9.85;5.35;;;2.10;99.90;;;;;;4218069;28;20048;-84
2022/11/20 01:54:12;;;;;;;12.07;5.97;;;1.10;99.90;;;;;;4233448;28;20044;-85
2022/11/20 01:56:14;;;;;;;12.30;6.43;;;1.10;99.90;;;;;;4247928;28;20047;-84
2022/11/20 01:58:20;;;;;;;11.77;5.55;;;1.20;99.90;;;;;;4228281;28;20036;-83
2022/11/20 02:00:24;;;;;;;11.82;5.53;;;1.10;99.90;;;;;;4216631;28;20078;-84
2022/11/20 02:02:26;;;;;;;8.50;4.97;;;1.10;99.90;;;;;;4231041;28;20093;-84
2022/11/20 02:04:28;;;;;;;11.13;5.05;;;0.20;99.90;;;;;;4216284;28;20071;-84
2022/11/20 02:06:38;;;;;;;13.18;5.85;;;1.10;99.90;;;;;;4232830;28;20050;-84
2022/11/20 02:08:40;;;;;;;11.65;5.22;;;1.10;99.90;;;;;;4252295;28;20406;-85
2022/11/20 02:10:45;;;;;;;9.35;5.13;;;1.20;99.90;;;;;;4251356;28;20565;-84
2022/11/20 02:15:06;;;;;;;13.38;5.32;;;1.10;99.90;;;;;;4251809;28;20051;-84
2022/11/20 02:17:08;;;;;;;10.05;4.97;;;1.10;99.90;;;;;;4216729;28;20032;-85
2022/11/20 02:19:26;;;;;;;13.05;5.82;;;1.10;99.90;;;;;;4238160;28;20114;-85
2022/11/20 02:21:49;;;;;;;9.67;5.30;;;1.10;99.90;;;;;;4252096;28;20039;-85
2022/11/20 02:24:03;;;;;;;11.32;5.47;;;1.10;99.90;;;;;;4251134;28;20330;-84
2022/11/20 02:26:08;;;;;;;10.52;5.25;;;1.20;99.90;;;;;;4232667;28;20063;-84
2022/11/20 02:28:10;;;;;;;10.00;5.50;;;1.60;99.90;;;;;;4237933;28;20499;-84
2022/11/20 02:30:11;;;;;;;11.02;5.13;;;1.30;99.90;;;;;;4251627;27;20055;-84
2022/11/20 02:32:30;;;;;;;10.02;5.25;;;1.20;99.90;;;;;;4253638;27;20440;-85
2022/11/20 02:34:34;;;;;;;10.20;5.13;;;1.30;99.90;;;;;;4253176;27;20092;-85
2022/11/20 02:36:39;;;;;;;11.13;5.40;;;2.30;99.90;;;;;;4253402;27;20039;-84
2022/11/20 02:38:40;;;;;;;12.25;5.63;;;1.60;99.90;;;;;;4235434;28;20049;-85
2022/11/20 02:40:41;;;;;;;11.00;5.40;;;2.40;99.90;;;;;;4234462;28;20438;-85
2022/11/20 02:42:43;;;;;;;12.50;5.90;;;1.30;99.90;;;;;;4251995;27;20118;-85
2022/11/20 02:44:44;;;;;;;12.57;6.10;;;2.10;99.90;;;;;;4252784;27;20039;-85
2022/11/20 02:46:46;;;;;;;12.45;6.05;;;1.80;99.90;;;;;;4234573;28;20058;-85
2022/11/20 02:48:46;;;;;;;13.68;5.75;;;1.80;99.90;;;;;;4252383;27;20035;-85
2022/11/20 02:50:48;;;;;;;14.05;6.43;;;1.30;99.90;;;;;;4253026;27;20039;-84
2022/11/20 02:52:49;;;;;;;9.57;5.68;;;1.30;99.90;;;;;;4233606;28;20491;-85
2022/11/20 02:54:51;;;;;;;13.45;5.88;;;1.20;99.90;;;;;;4233832;28;20123;-84
2022/11/20 02:56:52;;;;;;;10.43;5.35;;;1.20;99.90;;;;;;4252959;27;20050;-84
2022/11/20 02:58:52;;;;;;;11.50;5.85;;;1.20;99.90;;;;;;4251229;27;20039;-84
2022/11/20 03:00:54;;;;;;;9.98;5.53;;;1.20;99.90;;;;;;4238117;27;20054;-85
2022/11/20 03:02:56;;;;;;;12.30;5.57;;;1.20;99.90;;;;;;4234314;28;20076;-84
2022/11/20 03:04:58;;;;;;;9.38;5.00;;;1.20;99.90;;;;;;4253231;27;20050;-84
2022/11/20 03:07:00;;;;;;;8.02;4.45;;;1.20;99.90;;;;;;4217591;28;20591;-84
2022/11/20 03:09:02;;;;;;;10.95;4.43;;;1.20;99.90;;;;;;4253029;27;20058;-84
2022/11/20 03:11:06;;;;;;;8.65;4.38;;;1.20;99.90;;;;;;4218197;28;20083;-83
2022/11/20 03:13:06;;;;;;;9.40;3.97;;;1.20;99.90;;;;;;4236408;27;20050;-84
2022/11/20 03:15:09;;;;;;;8.90;4.45;;;2.50;99.90;;;;;;4216459;28;20040;-84
2022/11/20 03:17:11;;;;;;;9.77;4.07;;;1.20;99.90;;;;;;4252659;27;20055;-84
2022/11/20 03:19:13;;;;;;;10.90;4.28;;;1.60;99.90;;;;;;4249720;27;20399;-84
2022/11/20 03:21:15;;;;;;;8.93;4.13;;;2.00;99.90;;;;;;4236603;28;20040;-85
2022/11/20 03:23:17;;;;;;;11.75;4.40;;;1.70;99.90;;;;;;4214742;28;20054;-84
2022/11/20 03:25:18;;;;;;;11.15;4.90;;;1.20;99.90;;;;;;4234437;28;20059;-85
2022/11/20 03:27:20;;;;;;;9.85;4.55;;;1.20;99.90;;;;;;4235157;28;20122;-84
2022/11/20 03:29:22;;;;;;;10.40;4.57;;;1.70;99.90;;;;;;4253587;27;20483;-85
2022/11/20 03:31:33;;;;;;;7.95;3.85;;;1.20;99.90;;;;;;4253553;27;20043;-85
2022/11/20 03:33:35;;;;;;;9.55;4.60;;;1.20;99.90;;;;;;4253957;27;20043;-84
2022/11/20 03:35:38;;;;;;;8.20;4.82;;;1.40;99.90;;;;;;4213678;28;20565;-84
2022/11/20 03:37:40;;;;;;;9.05;4.22;;;1.20;99.90;;;;;;4236822;28;20044;-84
2022/11/20 03:39:42;;;;;;;9.20;4.60;;;1.10;99.90;;;;;;4237158;27;20089;-84
2022/11/20 03:41:44;;;;;;;9.75;4.20;;;1.20;99.90;;;;;;4253381;27;20376;-84
2022/11/20 03:44:05;;;;;;;9.40;4.70;;;1.20;99.90;;;;;;4253079;27;20050;-84
2022/11/20 03:46:08;;;;;;;12.45;4.90;;;1.30;99.90;;;;;;4253338;27;20072;-84
2022/11/20 03:48:09;;;;;;;9.15;4.45;;;1.20;99.90;;;;;;4253717;27;20117;-84
2022/11/20 03:50:13;;;;;;;9.68;4.65;;;1.20;99.90;;;;;;4218075;28;20075;-84
2022/11/20 03:52:15;;;;;;;7.82;4.13;;;1.20;99.90;;;;;;4248130;27;20118;-84
2022/11/20 03:54:17;;;;;;;7.53;3.92;;;1.30;99.90;;;;;;4235553;28;20039;-85
2022/11/20 03:56:22;;;;;;;10.95;4.50;;;2.00;99.90;;;;;;4250097;27;20039;-84
2022/11/20 03:58:25;;;;;;;10.07;4.97;;;1.80;99.90;;;;;;4250316;27;20058;-84
2022/11/20 04:00:26;;;;;;;8.98;4.13;;;1.30;99.90;;;;;;4215509;28;20051;-84
2022/11/20 04:02:28;;;;;;;9.70;3.55;;;1.30;99.90;;;;;;4251036;27;20499;-84
2022/11/20 04:04:30;;;;;;;7.38;3.67;;;2.70;99.90;;;;;;4217805;28;20186;-84
2022/11/20 04:06:36;;;;;;;10.18;4.45;;;2.30;99.90;;;;;;4218255;28;20078;-84
2022/11/20 04:08:38;;;;;;;7.45;2.95;;;1.50;99.90;;;;;;4216724;28;20043;-85
2022/11/20 04:10:40;;;;;;;5.93;3.58;;;1.40;99.60;;;;;;4217027;28;20055;-84
2022/11/20 04:12:41;;;;;;;6.07;3.50;;;1.30;99.60;;;;;;4208791;28;20079;-84
2022/11/20 04:14:43;;;;;;;7.22;3.60;;;1.30;99.40;;;;;;4217081;28;20470;-84
2022/11/20 04:16:45;;;;;;;7.03;3.35;;;1.50;99.60;;;;;;4208859;28;20142;-83
2022/11/20 04:18:47;;;;;;;6.60;3.60;;;2.40;99.80;;;;;;4233081;28;20031;-83
2022/11/20 04:20:49;;;;;;;6.40;3.50;;;1.30;99.40;;;;;;4234941;28;20480;-83
2022/11/20 04:22:54;;;;;;;7.00;3.60;;;1.30;99.50;;;;;;4233215;28;20056;-84
2022/11/20 04:24:55;;;;;;;6.95;3.72;;;2.50;99.60;;;;;;4234799;28;20518;-84
2022/11/20 04:26:56;;;;;;;8.77;3.72;;;2.70;99.60;;;;;;4233983;28;20054;-84
2022/11/20 04:29:01;;;;;;;6.15;3.40;;;1.50;99.20;;;;;;4234957;28;20040;-84
2022/11/20 04:31:08;;;;;;;6.10;3.17;;;1.40;99.20;;;;;;4233158;28;20049;-84
2022/11/20 04:33:10;;;;;;;6.97;3.35;;;1.40;99.10;;;;;;4234634;28;20100;-84
2022/11/20 04:35:10;;;;;;;5.57;3.25;;;2.30;99.30;;;;;;4233417;28;20048;-84
2022/11/20 04:37:11;;;;;;;7.10;3.83;;;2.90;99.50;;;;;;4227792;28;20052;-83
2022/11/20 04:39:17;;;;;;;6.15;3.53;;;1.40;99.40;;;;;;4216143;28;20051;-84
2022/11/20 04:41:21;;;;;;;6.90;3.42;;;1.40;99.30;;;;;;4233917;28;20452;-83
2022/11/20 04:43:23;;;;;;;8.18;4.25;;;1.40;99.10;;;;;;4233740;28;20487;-86
2022/11/20 04:45:25;;;;;;;6.70;3.50;;;1.40;99.30;;;;;;4232745;28;20565;-83
2022/11/20 04:47:25;;;;;;;7.38;3.55;;;2.40;99.40;;;;;;4232325;28;20059;-83
2022/11/20 04:49:27;;;;;;;6.18;3.30;;;1.40;99.30;;;;;;4233267;28;20438;-83
2022/11/20 04:51:30;;;;;;;6.85;3.40;;;1.40;99.10;;;;;;4216410;28;20047;-83
2022/11/20 04:53:32;;;;;;;8.35;4.05;;;1.40;98.80;;;;;;4226880;28;20069;-83
2022/11/20 04:55:34;;;;;;;8.35;4.13;;;1.70;99.30;;;;;;4216782;28;20415;-83
2022/11/20 04:57:36;;;;;;;8.65;3.88;;;1.50;99.20;;;;;;4216296;28;20051;-84
2022/11/20 04:59:37;;;;;;;8.80;4.03;;;1.50;99.20;;;;;;4225033;28;20048;-84
2022/11/20 05:01:39;;;;;;;9.27;4.45;;;1.40;99.20;;;;;;4224770;28;20075;-84
2022/11/20 05:03:42;;;;;;;8.75;4.47;;;1.40;99.10;;;;;;4216325;28;20083;-84
2022/11/20 05:05:44;;;;;;;7.82;3.80;;;1.40;99.00;;;;;;4235199;28;20044;-84
2022/11/20 05:07:46;;;;;;;9.60;3.88;;;2.70;99.60;;;;;;4233263;28;20059;-84
2022/11/20 05:09:47;;;;;;;9.90;4.25;;;1.80;99.40;;;;;;4218920;28;20152;-84
2022/11/20 05:11:50;;;;;;;9.82;4.30;;;1.30;99.50;;;;;;4233786;28;20044;-84
2022/11/20 05:13:51;;;;;;;7.75;3.92;;;1.40;99.30;;;;;;4244651;27;20487;-84
2022/11/20 05:15:52;;;;;;;9.10;4.28;;;1.50;99.30;;;;;;4233899;28;20125;-83
2022/11/20 05:17:53;;;;;;;9.65;4.43;;;2.10;99.70;;;;;;4251628;27;20070;-84
2022/11/20 05:19:55;;;;;;;10.07;4.78;;;2.70;99.70;;;;;;4251078;27;20042;-84
2022/11/20 05:21:57;;;;;;;8.43;4.20;;;1.40;99.70;;;;;;4215862;28;20087;-84
2022/11/20 05:24:00;;;;;;;10.98;4.60;;;2.10;99.60;;;;;;4209282;28;20218;-84
2022/11/20 05:26:03;;;;;;;8.52;4.70;;;1.70;99.60;;;;;;4227045;28;20043;-83
2022/11/20 05:28:03;;;;;;;7.85;3.97;;;1.50;99.40;;;;;;4250700;27;20122;-84
2022/11/20 05:30:05;;;;;;;10.38;4.65;;;2.10;99.70;;;;;;4250767;27;20039;-85
2022/11/20 05:32:09;;;;;;;7.63;4.13;;;1.50;99.40;;;;;;4250598;27;20046;-85
2022/11/20 05:34:11;;;;;;;10.30;4.55;;;0.50;99.70;;;;;;4250756;28;20047;-85
2022/11/20 05:36:14;;;;;;;10.63;5.00;;;1.50;99.70;;;;;;4232493;28;20040;-85
2022/11/20 05:38:15;;;;;;;9.57;4.40;;;1.50;99.60;;;;;;4232123;28;20047;-85
2022/11/20 05:40:17;;;;;;;8.90;4.85;;;1.50;99.70;;;;;;4247013;28;20039;-84
2022/11/20 05:42:31;;;;;;;8.07;4.38;;;2.50;99.90;;;;;;4240415;28;20075;-84
2022/11/20 05:44:32;;;;;;;10.55;5.22;;;1.40;99.70;;;;;;4249722;28;20147;-82
2022/11/20 05:46:34;;;;;;;10.50;5.00;;;2.00;99.90;;;;;;4246251;28;20540;-84
2022/11/20 05:48:36;;;;;;;11.05;5.22;;;1.40;99.90;;;;;;4249942;28;20046;-84
2022/11/20 05:50:39;;;;;;;11.13;5.40;;;3.00;99.90;;;;;;4250516;28;20043;-84
2022/11/20 05:52:41;;;;;;;9.93;4.72;;;1.40;99.90;;;;;;4215643;28;20067;-84
2022/11/20 05:54:42;;;;;;;9.70;4.80;;;1.60;99.90;;;;;;4254695;28;20572;-84
2022/11/20 05:56:44;;;;;;;10.18;4.95;;;1.40;99.90;;;;;;4215773;28;20055;-85
2022/11/20 05:58:46;;;;;;;8.48;4.50;;;1.40;99.90;;;;;;4250544;28;20043;-84
2022/11/20 06:00:48;;;;;;;12.70;4.57;;;1.40;99.90;;;;;;4230221;28;20412;-84
2022/11/20 06:02:58;;;;;;;9.00;4.80;;;1.40;99.90;;;;;;4217948;28;20043;-84
2022/11/20 06:04:58;;;;;;;10.65;5.05;;;2.20;99.90;;;;;;4229285;28;20470;-84
2022/11/20 06:06:59;;;;;;;9.98;4.45;;;1.50;99.90;;;;;;4224663;28;20055;-84
2022/11/20 06:09:02;;;;;;;9.15;4.97;;;2.40;99.90;;;;;;4238503;28;20047;-84
2022/11/20 06:11:06;;;;;;;10.02;4.80;;;1.50;99.90;;;;;;4238805;28;20075;-84
2022/11/20 06:13:07;;;;;;;8.75;4.10;;;1.50;99.70;;;;;;4256625;27;20520;-84
2022/11/20 06:15:09;;;;;;;8.55;4.32;;;3.20;99.90;;;;;;4256703;27;20047;-83
2022/11/20 06:17:11;;;;;;;9.70;4.22;;;1.50;99.90;;;;;;4216185;28;20040;-84
2022/11/20 06:19:12;;;;;;;9.13;4.28;;;1.50;99.90;;;;;;4202176;28;20055;-84
2022/11/20 06:21:19;;;;;;;10.13;4.78;;;1.50;99.90;;;;;;4219297;28;20586;-84
2022/11/20 06:23:25;;;;;;;9.45;4.20;;;1.40;99.70;;;;;;4232504;28;20101;-84
2022/11/20 06:25:27;;;;;;;11.48;4.55;;;1.40;99.70;;;;;;4254292;27;20074;-84
2022/11/20 06:27:30;;;;;;;10.23;4.13;;;1.70;99.90;;;;;;4235913;28;20056;-84
2022/11/20 06:29:30;;;;;;;7.10;3.70;;;0.30;99.70;;;;;;4218296;28;20048;-83
2022/11/20 06:31:37;;;;;;;10.55;4.28;;;1.50;99.90;;;;;;4253911;27;20402;-83
2022/11/20 06:33:38;;;;;;;8.73;4.15;;;1.60;99.90;;;;;;4253781;27;20114;-83
2022/11/20 06:35:39;;;;;;;10.43;4.70;;;2.20;99.90;;;;;;4247464;27;20049;-84
2022/11/20 06:37:40;;;;;;;9.32;4.53;;;2.70;99.90;;;;;;4253209;27;20039;-84
2022/11/20 06:39:42;;;;;;;7.75;4.13;;;1.50;99.90;;;;;;4253397;27;20406;-84
2022/11/20 06:41:44;;;;;;;9.55;4.22;;;2.60;99.90;;;;;;4218579;28;20055;-83
2022/11/20 06:43:44;;;;;;;11.68;4.82;;;1.60;99.90;;;;;;4234759;28;20048;-83
2022/11/20 06:45:45;;;;;;;9.23;4.43;;;1.60;99.90;;;;;;4252832;27;20140;-83
2022/11/20 06:47:46;;;;;;;9.13;4.28;;;1.80;99.90;;;;;;4253984;27;20063;-83
2022/11/20 06:49:47;;;;;;;8.60;4.68;;;2.20;99.90;;;;;;4218857;28;20074;-83
2022/11/20 06:51:49;;;;;;;8.60;4.25;;;2.00;99.90;;;;;;4252454;27;20479;-84
2022/11/20 06:53:51;;;;;;;9.82;4.25;;;1.60;99.90;;;;;;4232885;28;20082;-84
2022/11/20 06:55:56;;;;;;;9.68;4.60;;;1.50;99.90;;;;;;4233142;28;20428;-83
2022/11/20 06:57:57;;;;;;;8.70;4.00;;;2.60;99.90;;;;;;4227459;28;20043;-82
2022/11/20 06:59:58;;;;;;;10.43;4.32;;;1.60;99.90;;;;;;4218203;28;20090;-83
2022/11/20 07:02:00;;;;;;;9.73;4.63;;;1.50;99.90;;;;;;4247075;27;20051;-83
2022/11/20 07:04:03;;;;;;;8.57;4.25;;;2.40;99.90;;;;;;4252159;27;20049;-83
2022/11/20 07:06:04;;;;;;;9.23;4.72;;;1.60;99.90;;;;;;4252627;27;20122;-83
2022/11/20 07:08:07;;;;;;;8.23;4.43;;;1.60;99.90;;;;;;4252244;27;20043;-83
2022/11/20 07:10:08;;;;;;;8.55;4.63;;;1.60;99.90;;;;;;4251547;27;20376;-83
2022/11/20 07:12:10;;;;;;;11.60;4.60;;;1.50;99.90;;;;;;4250772;27;20043;-83
2022/11/20 07:14:10;;;;;;;9.38;4.18;;;1.00;99.90;;;;;;4229777;28;20527;-84
2022/11/20 07:16:11;;;;;;;7.47;4.05;;;2.10;99.90;;;;;;4233047;28;20105;-84
2022/11/20 07:18:14;;;;;;;8.80;4.45;;;2.70;99.90;;;;;;4200546;28;20057;-84
2022/11/20 07:20:16;;;;;;;9.88;4.68;;;1.70;99.90;;;;;;4230085;28;20060;-84
2022/11/20 07:22:17;;;;;;;8.85;4.43;;;1.70;99.90;;;;;;4251253;27;20126;-83
2022/11/20 07:24:17;;;;;;;9.30;4.43;;;1.90;99.90;;;;;;4216053;28;20047;-84
2022/11/20 07:26:19;;;;;;;7.78;4.07;;;2.80;99.90;;;;;;4250910;27;20104;-84
2022/11/20 07:28:21;;;;;;;10.05;4.28;;;2.20;99.90;;;;;;4251270;27;20043;-84
2022/11/20 07:30:22;;;;;;;9.18;4.30;;;3.10;99.90;;;;;;4252510;27;20039;-84
2022/11/20 07:32:23;;;;;;;8.55;4.40;;;1.80;99.90;;;;;;4216701;28;20048;-83
2022/11/20 07:34:30;;;;;;;9.80;4.53;;;3.30;99.90;;;;;;4249060;27;20127;-84
2022/11/20 07:36:33;;;;;;;8.70;4.43;;;1.90;99.90;;;;;;4240713;27;20042;-84
2022/11/20 07:38:37;;;;;;;10.48;4.78;;;1.80;99.90;;;;;;4253309;27;20122;-84
2022/11/20 07:40:40;;;;;;;11.02;4.82;;;1.80;99.90;;;;;;4252806;27;20465;-83
2022/11/20 07:42:55;;;;;;;10.50;5.18;;;3.00;99.90;;;;;;4235450;28;20122;-83
2022/11/20 07:44:56;;;;;;;7.10;4.10;;;1.80;99.90;;;;;;4253554;27;20061;-84
2022/11/20 07:46:58;;;;;;;10.90;4.70;;;1.80;99.90;;;;;;4234416;28;20511;-84
2022/11/20 07:48:59;;;;;;;8.32;4.18;;;1.80;99.90;;;;;;4252648;27;20054;-84
2022/11/20 07:51:00;;;;;;;9.85;5.10;;;2.40;99.90;;;;;;4252803;27;20473;-84
2022/11/20 07:53:05;;;;;;;11.60;5.15;;;1.80;99.90;;;;;;4232638;28;20059;-84
2022/11/20 07:55:07;;;;;;;10.90;4.40;;;1.90;99.90;;;;;;4217817;28;20131;-84
2022/11/20 07:57:09;;;;;;;9.80;4.72;;;1.90;99.90;;;;;;4235058;28;20066;-84
2022/11/20 07:59:11;;;;;;;10.02;4.95;;;1.60;99.90;;;;;;4239666;27;20052;-86
2022/11/20 08:01:13;;;;;;;8.88;4.13;;;1.70;99.90;;;;;;4239210;27;20043;-84
2022/11/20 08:03:15;;;;;;;10.05;4.65;;;1.80;99.90;;;;;;4251221;27;20064;-84
2022/11/20 08:05:19;;;;;;;11.63;5.03;;;1.80;99.90;;;;;;4233431;28;20058;-84
2022/11/20 08:07:20;;;;;;;9.10;4.28;;;1.80;99.90;;;;;;4250732;27;20042;-84
2022/11/20 08:09:21;;;;;;;10.65;4.70;;;1.80;99.90;;;;;;4216159;28;20039;-88
2022/11/20 08:16:03;;;;;;;8.25;4.35;;;1.90;99.90;;;;;;4250119;27;20134;-84
2022/11/20 08:18:10;;;;;;;10.52;5.28;;;1.90;99.90;;;;;;4249694;27;20114;-84
2022/11/20 08:20:12;;;;;;;11.27;5.15;;;2.90;99.90;;;;;;4250087;27;20110;-84
2022/11/20 08:22:13;;;;;;;7.82;4.25;;;2.00;99.90;;;;;;4237991;27;20464;-84
2022/11/20 08:24:15;;;;;;;8.57;4.55;;;2.00;99.90;;;;;;4236521;27;20031;-84
2022/11/20 08:26:16;;;;;;;11.38;5.00;;;2.80;99.90;;;;;;4235053;27;20419;-84
2022/11/20 08:28:18;;;;;;;10.27;4.97;;;2.00;99.90;;;;;;4244019;27;20031;-84
2022/11/20 08:30:19;;;;;;;11.13;5.47;;;2.60;99.90;;;;;;4231869;28;20571;-84
2022/11/20 08:32:20;;;;;;;9.52;5.07;;;2.50;99.90;;;;;;4233728;28;20073;-84
2022/11/20 08:34:21;;;;;;;9.52;4.88;;;2.60;99.90;;;;;;4233188;28;20050;-84
2022/11/20 08:36:24;;;;;;;9.88;4.72;;;2.10;99.90;;;;;;4233343;28;20043;-84
2022/11/20 08:38:26;;;;;;;8.85;4.60;;;2.00;99.90;;;;;;4250659;27;20499;-84
2022/11/20 08:40:26;;;;;;;8.85;4.55;;;2.00;99.90;;;;;;4250643;27;20039;-85
2022/11/20 08:42:28;;;;;;;11.70;5.57;;;2.60;99.90;;;;;;4247959;27;20050;-85
2022/11/20 08:44:30;;;;;;;12.13;4.90;;;2.00;99.90;;;;;;4238228;27;20109;-85
2022/11/20 08:46:36;;;;;;;8.98;5.13;;;2.00;99.90;;;;;;4249762;27;20118;-85
2022/11/20 08:48:39;;;;;;;11.05;5.10;;;2.00;99.90;;;;;;4245674;27;20082;-85
2022/11/20 08:50:40;;;;;;;10.27;5.15;;;2.00;99.90;;;;;;4232643;28;20040;-85
2022/11/20 08:52:41;;;;;;;9.40;5.43;;;2.60;99.90;;;;;;4240904;27;20049;-85
2022/11/20 08:54:43;;;;;;;9.65;4.93;;;1.90;99.90;;;;;;4249531;27;20051;-85
2022/11/20 08:56:43;;;;;;;8.82;4.75;;;1.00;99.90;;;;;;4249644;27;20402;-85
2022/11/20 08:58:45;;;;;;;11.75;5.38;;;2.00;99.90;;;;;;4214906;28;20056;-85
2022/11/20 09:00:46;;;;;;;10.20;5.75;;;2.00;99.90;;;;;;4250049;27;20105;-85
2022/11/20 09:02:46;;;;;;;9.77;4.88;;;1.90;99.90;;;;;;4247026;27;20069;-85
2022/11/20 09:04:48;;;;;;;9.20;4.85;;;3.40;99.90;;;;;;4232508;28;20039;-84
2022/11/20 09:06:51;;;;;;;10.35;5.07;;;2.10;99.90;;;;;;4236312;27;20046;-84
2022/11/20 09:08:56;;;;;;;8.38;4.82;;;3.50;99.90;;;;;;4243847;27;20043;-84
2022/11/20 09:10:59;;;;;;;9.63;4.97;;;2.90;99.90;;;;;;4240491;27;20057;-84
2022/11/20 09:13:00;;;;;;;14.48;5.72;;;1.10;99.90;;;;;;4235075;27;20071;-84
2022/11/20 09:15:02;;;;;;;9.30;5.13;;;2.00;99.90;;;;;;4249031;27;20424;-84
2022/11/20 09:17:04;;;;;;;11.10;5.63;;;2.00;99.90;;;;;;4249095;27;20487;-83
2022/11/20 09:19:05;;;;;;;14.30;6.28;;;2.00;99.90;;;;;;4248828;27;20040;-84
2022/11/20 09:21:11;;;;;;;11.73;4.95;;;2.30;99.90;;;;;;4249705;27;20035;-84
2022/11/20 09:23:12;;;;;;;9.98;5.13;;;2.10;99.90;;;;;;4231433;28;20119;-84
2022/11/20 09:25:13;;;;;;;11.00;5.25;;;2.00;99.90;;;;;;4224273;28;20055;-84
2022/11/20 09:27:20;;;;;;;12.85;5.20;;;2.70;99.90;;;;;;4222952;28;20511;-84
2022/11/20 09:29:22;;;;;;;9.20;4.88;;;2.20;99.90;;;;;;4253990;27;20047;-84
2022/11/20 09:31:25;;;;;;;11.45;5.78;;;2.00;99.90;;;;;;4248938;27;20122;-84
2022/11/20 09:33:30;;;;;;;11.90;5.45;;;2.70;99.90;;;;;;4249199;27;20058;-84
2022/11/20 09:35:31;;;;;;;10.27;5.45;;;2.00;99.90;;;;;;4230925;28;20073;-84
2022/11/20 09:37:32;;;;;;;10.48;5.80;;;2.10;99.90;;;;;;4231137;28;20512;-84
2022/11/20 09:39:34;;;;;;;10.02;5.05;;;2.00;99.90;;;;;;4231221;28;20048;-84
2022/11/20 09:42:04;;;;;;;14.93;5.50;;;2.10;99.90;;;;;;4231386;28;20047;-84
2022/11/20 09:44:32;;;;;;;12.43;5.75;;;2.10;99.90;;;;;;4248272;28;20147;-84
2022/11/20 09:46:57;;;;;;;14.20;6.45;;;2.10;99.90;;;;;;4237263;28;20057;-84
2022/11/20 09:49:03;;;;;;;10.05;5.35;;;1.30;99.90;;;;;;4231115;28;20048;-84
2022/11/20 09:51:32;;;;;;;10.77;5.53;;;2.10;99.90;;;;;;4222647;28;20085;-85
2022/11/20 09:53:40;;;;;;;10.75;5.25;;;2.20;99.90;;;;;;4230419;28;20079;-84
2022/11/20 09:55:42;;;;;;;9.75;4.93;;;2.20;99.90;;;;;;4221293;28;20070;-85
2022/11/20 09:57:47;;;;;;;10.45;5.30;;;2.20;99.90;;;;;;4223572;28;20209;-84
2022/11/20 09:59:59;;;;;;;12.55;5.60;;;2.30;99.90;;;;;;4213576;28;20047;-84
2022/11/20 10:02:06;;;;;;;11.15;5.20;;;2.30;99.90;;;;;;4249774;28;20118;-83
2022/11/20 10:04:17;;;;;;;12.85;5.63;;;3.00;99.90;;;;;;4249032;28;20039;-83
2022/11/20 10:06:27;;;;;;;9.10;5.18;;;2.40;99.90;;;;;;4230653;28;20384;-84
2022/11/20 10:08:38;;;;;;;11.18;5.57;;;3.90;99.90;;;;;;4248595;28;20035;-83
2022/11/20 10:11:16;;;;;;;9.05;5.13;;;3.00;99.90;;;;;;4213898;28;20098;-84
2022/11/20 10:13:31;;;;;;;10.40;5.75;;;2.50;99.90;;;;;;4230333;28;20403;-84
2022/11/20 10:15:56;;;;;;;10.95;5.13;;;3.70;99.90;;;;;;4213522;28;20542;-84
2022/11/20 10:18:29;;;;;;;10.63;5.68;;;2.50;99.90;;;;;;4213912;28;20063;-83
2022/11/20 10:20:37;;;;;;;12.98;5.72;;;2.60;99.90;;;;;;4248480;28;20157;-84
2022/11/20 10:22:44;;;;;;;12.37;5.70;;;3.40;99.90;;;;;;4248161;28;20042;-84
2022/11/20 10:24:50;;;;;;;10.68;5.55;;;2.60;99.90;;;;;;4230341;28;20665;-83
2022/11/20 10:26:57;;;;;;;9.82;5.38;;;2.70;99.90;;;;;;4247736;28;20062;-84
2022/11/20 10:29:10;;;;;;;13.77;5.70;;;2.70;99.90;;;;;;4247932;28;20047;-84
2022/11/20 10:31:32;;;;;;;10.20;5.50;;;2.80;99.90;;;;;;4248606;28;20039;-84
2022/11/20 10:33:39;;;;;;;11.15;5.75;;;2.90;99.90;;;;;;4213231;28;20401;-84
2022/11/20 10:35:43;;;;;;;11.02;5.38;;;3.60;99.90;;;;;;4222632;28;20076;-84
2022/11/20 10:37:51;;;;;;;11.73;5.95;;;3.70;99.90;;;;;;4230981;28;20060;-84
2022/11/20 10:40:31;;;;;;;11.98;6.68;;;2.90;99.90;;;;;;4232818;28;20054;-84
2022/11/20 10:42:43;;;;;;;9.82;5.03;;;3.50;99.90;;;;;;4241892;28;20136;-84
2022/11/20 10:45:01;;;;;;;12.60;5.10;;;3.00;99.70;;;;;;4213181;28;20043;-84
2022/11/20 10:47:03;;;;;;;10.77;5.00;;;3.10;99.60;;;;;;4239532;28;20039;-84
2022/11/20 10:49:19;;;;;;;10.35;4.32;;;3.20;99.20;;;;;;4231238;28;20039;-84
2022/11/20 10:51:28;;;;;;;10.90;4.80;;;3.30;99.30;;;;;;4231677;28;20052;-84
2022/11/20 10:53:47;;;;;;;11.15;4.72;;;3.60;99.20;;;;;;4250074;27;20039;-84
2022/11/20 10:55:55;;;;;;;9.63;5.03;;;3.50;98.90;;;;;;4233526;28;20127;-84
2022/11/20 10:58:08;;;;;;;11.82;5.75;;;3.60;98.70;;;;;;4218022;28;20512;-84
2022/11/20 11:00:10;;;;;;;9.75;4.47;;;3.70;98.80;;;;;;4198835;28;20059;-84